createdAt,value
2023-07-30T00:01:01.547Z,1.58
2023-07-30T00:03:34.156Z,1.88
2023-07-30T00:06:07.113Z,1.33
2023-07-30T00:08:39.591Z,1.50
2023-07-30T00:11:12.143Z,1.40
2023-07-30T00:13:44.606Z,1.52
2023-07-30T00:16:17.330Z,1.52
2023-07-30T00:18:49.924Z,1.48
2023-07-30T00:21:22.541Z,1.48
2023-07-30T00:23:54.983Z,1.70
2023-07-30T00:26:27.768Z,1.35
2023-07-30T00:29:00.286Z,1.73
2023-07-30T00:31:32.787Z,1.77
2023-07-30T00:34:05.337Z,1.58
2023-07-30T00:36:37.784Z,1.30
2023-07-30T00:39:12.309Z,1.83
2023-07-30T00:41:44.889Z,2.40
2023-07-30T00:44:17.503Z,1.63
2023-07-30T00:46:50.792Z,1.70
2023-07-30T00:49:23.435Z,1.80
2023-07-30T00:51:57.646Z,1.50
2023-07-30T00:54:30.339Z,1.30
2023-07-30T00:57:03.320Z,1.75
2023-07-30T00:59:35.930Z,1.73
2023-07-30T01:02:08.464Z,2.20
2023-07-30T01:04:41.618Z,1.65
2023-07-30T01:07:14.362Z,1.73
2023-07-30T01:09:47.023Z,1.92
2023-07-30T01:12:19.568Z,1.67
2023-07-30T01:14:52.860Z,2.20
2023-07-30T01:17:25.497Z,2.33
2023-07-30T01:19:58.070Z,2.22
2023-07-30T01:22:30.658Z,1.65
2023-07-30T01:25:03.740Z,1.40
2023-07-30T01:27:45.360Z,1.60
2023-07-30T01:30:23.865Z,1.70
2023-07-30T01:32:57.414Z,1.80
2023-07-30T01:35:31.606Z,1.40
2023-07-30T01:38:06.376Z,1.60
2023-07-30T01:40:38.972Z,2.00
2023-07-30T01:43:11.540Z,1.95
2023-07-30T01:45:44.119Z,2.03
2023-07-30T01:48:16.671Z,1.50
2023-07-30T01:50:49.946Z,1.70
2023-07-30T01:53:22.471Z,1.80
2023-07-30T01:55:55.020Z,2.00
2023-07-30T01:58:27.545Z,1.40
2023-07-30T02:01:00.138Z,1.40
2023-07-30T02:03:32.811Z,1.70
2023-07-30T02:06:05.432Z,1.58
2023-07-30T02:08:38.154Z,1.60
2023-07-30T02:11:10.768Z,3.03
2023-07-30T02:13:43.648Z,2.58
2023-07-30T02:16:16.238Z,1.60
2023-07-30T02:18:48.814Z,2.00
2023-07-30T02:21:21.370Z,1.75
2023-07-30T02:23:53.885Z,1.90
2023-07-30T02:26:26.362Z,2.00
2023-07-30T02:29:01.621Z,2.08
2023-07-30T02:31:34.314Z,2.38
2023-07-30T02:34:08.129Z,1.83
2023-07-30T02:36:40.634Z,1.98
2023-07-30T02:39:13.089Z,1.77
2023-07-30T02:41:45.645Z,2.17
2023-07-30T02:44:18.150Z,1.67
2023-07-30T02:46:50.630Z,2.30
2023-07-30T02:49:23.127Z,1.75
2023-07-30T02:51:55.622Z,1.92
2023-07-30T02:54:28.225Z,1.83
2023-07-30T02:57:00.714Z,2.00
2023-07-30T02:59:37.016Z,1.83
2023-07-30T03:02:10.132Z,2.10
2023-07-30T03:04:42.681Z,2.47
2023-07-30T03:07:15.294Z,1.95
2023-07-30T03:09:48.055Z,1.90
2023-07-30T03:12:20.566Z,1.90
2023-07-30T03:14:53.080Z,1.92
2023-07-30T03:17:26.414Z,1.77
2023-07-30T03:19:59.022Z,1.98
2023-07-30T03:22:31.493Z,1.50
2023-07-30T03:25:04.909Z,1.60
2023-07-30T03:27:37.453Z,2.42
2023-07-30T03:30:10.522Z,1.73
2023-07-30T03:32:43.126Z,1.83
2023-07-30T03:35:15.800Z,1.70
2023-07-30T03:37:48.320Z,1.80
2023-07-30T03:40:20.828Z,1.88
2023-07-30T03:42:53.311Z,1.90
2023-07-30T03:45:25.843Z,1.80
2023-07-30T03:47:58.334Z,2.13
2023-07-30T03:50:30.975Z,2.00
2023-07-30T03:53:03.503Z,1.95
2023-07-30T03:55:36.159Z,2.45
2023-07-30T03:58:08.773Z,1.60
2023-07-30T04:00:41.811Z,2.38
2023-07-30T04:03:14.625Z,2.00
2023-07-30T04:05:47.174Z,2.20
2023-07-30T04:08:19.817Z,2.72
2023-07-30T04:10:52.387Z,1.92
2023-07-30T04:13:24.887Z,2.03
2023-07-30T04:15:57.425Z,2.40
2023-07-30T04:18:29.994Z,2.50
2023-07-30T04:21:02.534Z,2.80
2023-07-30T04:23:35.106Z,3.22
2023-07-30T04:26:07.637Z,2.60
2023-07-30T04:28:40.172Z,2.70
2023-07-30T04:31:12.724Z,2.38
2023-07-30T04:33:45.345Z,2.47
2023-07-30T04:36:17.937Z,3.33
2023-07-30T04:38:50.573Z,2.38
2023-07-30T04:41:23.213Z,2.60
2023-07-30T04:43:55.747Z,3.28
2023-07-30T04:46:28.371Z,3.10
2023-07-30T04:49:03.462Z,2.47
2023-07-30T04:51:36.059Z,2.58
2023-07-30T04:54:08.796Z,2.78
2023-07-30T04:56:41.472Z,2.75
2023-07-30T04:59:14.041Z,3.70
2023-07-30T05:01:46.615Z,3.58
2023-07-30T05:04:19.080Z,3.38
2023-07-30T05:06:51.536Z,3.78
2023-07-30T05:09:23.994Z,2.83
2023-07-30T05:11:56.676Z,3.30
2023-07-30T05:14:29.205Z,2.47
2023-07-30T05:17:01.746Z,2.53
2023-07-30T05:19:34.475Z,2.78
2023-07-30T05:22:09.031Z,2.60
2023-07-30T05:24:41.601Z,3.03
2023-07-30T05:27:14.408Z,2.38
2023-07-30T05:29:49.334Z,2.95
2023-07-30T05:32:22.034Z,2.50
2023-07-30T05:34:54.591Z,2.72
2023-07-30T05:37:27.196Z,3.67
2023-07-30T05:39:59.789Z,3.92
2023-07-30T05:42:32.335Z,2.67
2023-07-30T05:45:05.265Z,2.88
2023-07-30T05:47:37.852Z,2.70
2023-07-30T05:50:10.597Z,2.95
2023-07-30T05:52:43.135Z,2.83
2023-07-30T05:55:15.599Z,3.13
2023-07-30T05:57:48.085Z,3.28
2023-07-30T06:00:20.816Z,2.90
2023-07-30T06:02:53.404Z,2.78
2023-07-30T06:05:26.008Z,2.50
2023-07-30T06:07:58.576Z,2.45
2023-07-30T06:10:31.218Z,2.53
2023-07-30T06:13:05.032Z,2.80
2023-07-30T06:15:37.681Z,3.13
2023-07-30T06:18:10.529Z,3.17
2023-07-30T06:20:43.141Z,2.72
2023-07-30T06:23:15.789Z,3.53
2023-07-30T06:25:48.268Z,2.53
2023-07-30T06:28:20.840Z,2.40
2023-07-30T06:30:53.444Z,3.05
2023-07-30T06:33:27.231Z,2.33
2023-07-30T06:35:59.944Z,2.95
2023-07-30T06:38:32.652Z,2.63
2023-07-30T06:41:05.161Z,3.13
2023-07-30T06:43:37.687Z,3.35
2023-07-30T06:46:10.199Z,3.92
2023-07-30T06:48:42.763Z,2.75
2023-07-30T06:51:15.253Z,3.00
2023-07-30T06:53:47.813Z,2.40
2023-07-30T06:56:20.350Z,3.45
2023-07-30T06:58:52.891Z,3.10
2023-07-30T07:01:25.418Z,2.65
2023-07-30T07:03:57.905Z,2.88
2023-07-30T07:06:30.405Z,2.80
2023-07-30T07:09:02.918Z,2.58
2023-07-30T07:11:35.833Z,2.25
2023-07-30T07:14:08.615Z,1.98
2023-07-30T07:16:41.240Z,3.97
2023-07-30T07:19:13.879Z,1.98
2023-07-30T07:21:46.413Z,2.17
2023-07-30T07:24:18.949Z,2.17
2023-07-30T07:26:51.469Z,1.98
2023-07-30T07:29:24.083Z,2.00
2023-07-30T07:31:56.563Z,2.10
2023-07-30T07:34:29.328Z,2.08
2023-07-30T07:37:03.033Z,2.67
2023-07-30T07:39:35.543Z,2.42
2023-07-30T07:42:08.164Z,2.25
2023-07-30T07:44:40.714Z,2.00
2023-07-30T07:47:13.329Z,1.70
2023-07-30T07:49:45.746Z,2.40
2023-07-30T07:52:20.260Z,1.88
2023-07-30T07:54:52.801Z,1.75
2023-07-30T07:57:25.307Z,2.30
2023-07-30T07:59:58.130Z,1.83
2023-07-30T08:02:30.623Z,1.77
2023-07-30T08:05:04.376Z,2.17
2023-07-30T08:07:36.981Z,1.50
2023-07-30T08:10:09.645Z,2.33
2023-07-30T08:12:43.150Z,2.22
2023-07-30T08:15:15.701Z,2.38
2023-07-30T08:17:48.245Z,1.95
2023-07-30T08:20:20.837Z,2.05
2023-07-30T08:22:53.344Z,1.63
2023-07-30T08:25:25.911Z,1.38
2023-07-30T08:27:58.446Z,2.75
2023-07-30T08:30:30.973Z,1.48
2023-07-30T08:33:03.672Z,2.85
2023-07-30T08:35:36.192Z,2.90
2023-07-30T08:38:08.687Z,1.73
2023-07-30T08:40:41.244Z,1.75
2023-07-30T08:43:14.366Z,2.08
2023-07-30T08:45:46.960Z,2.22
2023-07-30T08:48:19.443Z,1.60
2023-07-30T08:50:52.419Z,1.65
2023-07-30T08:53:28.005Z,1.45
2023-07-30T08:56:02.652Z,1.90
2023-07-30T08:58:36.105Z,1.60
2023-07-30T09:01:13.709Z,1.95
2023-07-30T09:03:46.916Z,1.52
2023-07-30T09:06:19.364Z,1.70
2023-07-30T09:08:51.918Z,1.80
2023-07-30T09:11:28.584Z,1.90
2023-07-30T09:14:03.878Z,1.33
2023-07-30T09:19:08.810Z,1.20
2023-07-30T09:21:41.551Z,2.05
2023-07-30T09:24:22.842Z,1.75
2023-07-30T09:26:55.353Z,1.70
2023-07-30T09:29:27.847Z,1.50
2023-07-30T09:32:00.653Z,1.35
2023-07-30T09:34:33.132Z,1.52
2023-07-30T09:37:05.824Z,1.30
2023-07-30T09:39:38.962Z,1.40
2023-07-30T09:42:11.495Z,1.33
2023-07-30T09:44:48.006Z,1.80
2023-07-30T09:47:20.506Z,1.20
2023-07-30T09:49:53.219Z,1.38
2023-07-30T09:52:25.757Z,1.30
2023-07-30T09:54:59.699Z,1.10
2023-07-30T09:57:32.287Z,1.65
2023-07-30T10:00:06.933Z,0.90
2023-07-30T10:02:44.369Z,1.40
2023-07-30T10:05:19.666Z,1.02
2023-07-30T10:10:32.908Z,1.05
2023-07-30T10:13:10.847Z,1.15
2023-07-30T10:15:44.702Z,1.30
2023-07-30T10:18:17.492Z,1.80
2023-07-30T10:20:58.657Z,1.23
2023-07-30T10:23:34.122Z,0.95
2023-07-30T10:26:11.654Z,1.23
2023-07-30T10:28:45.054Z,1.23
2023-07-30T10:31:17.839Z,1.45
2023-07-30T10:33:52.430Z,0.88
2023-07-30T10:36:41.342Z,0.73
2023-07-30T10:39:29.565Z,1.17
2023-07-30T10:42:04.038Z,0.77
2023-07-30T10:44:36.968Z,1.10
2023-07-30T10:47:16.350Z,0.88
2023-07-30T10:50:02.696Z,0.70
2023-07-30T10:52:37.220Z,0.75
2023-07-30T10:55:09.920Z,1.10
2023-07-30T10:57:44.244Z,0.93
2023-07-30T11:00:16.891Z,1.13
2023-07-30T11:02:56.602Z,1.00
2023-07-30T11:05:29.556Z,1.10
2023-07-30T11:08:02.043Z,0.93
2023-07-30T11:10:43.512Z,0.82
2023-07-30T11:13:16.164Z,1.08
2023-07-30T11:15:48.664Z,1.08
2023-07-30T11:18:21.235Z,1.90
2023-07-30T11:21:02.957Z,1.88
2023-07-30T11:23:40.022Z,1.00
2023-07-30T11:26:18.125Z,0.80
2023-07-30T11:28:50.620Z,1.58
2023-07-30T11:31:25.766Z,1.27
2023-07-30T11:33:58.377Z,1.60
2023-07-30T11:36:31.089Z,0.93
2023-07-30T11:39:04.479Z,1.17
2023-07-30T11:41:37.956Z,0.90
2023-07-30T11:44:30.815Z,1.10
2023-07-30T11:47:05.157Z,1.05
2023-07-30T11:49:38.301Z,0.80
2023-07-30T11:52:11.893Z,1.05
2023-07-30T11:54:44.525Z,0.88
2023-07-30T11:57:17.125Z,0.98
2023-07-30T11:59:49.867Z,0.93
2023-07-30T12:02:22.398Z,1.08
2023-07-30T12:05:06.040Z,1.10
2023-07-30T12:07:44.076Z,0.70
2023-07-30T12:10:18.718Z,1.38
2023-07-30T12:12:54.191Z,0.82
2023-07-30T12:15:28.665Z,0.75
2023-07-30T12:18:01.347Z,1.33
2023-07-30T12:20:33.895Z,1.10
2023-07-30T12:23:06.466Z,0.80
2023-07-30T12:25:39.259Z,1.00
2023-07-30T12:28:11.855Z,0.90
2023-07-30T12:30:44.453Z,0.65
2023-07-30T12:33:18.067Z,0.82
2023-07-30T12:35:51.299Z,0.77
2023-07-30T12:38:23.973Z,0.70
2023-07-30T12:40:56.606Z,0.93
2023-07-30T12:43:29.071Z,0.68
2023-07-30T12:46:01.689Z,0.93
2023-07-30T12:48:34.241Z,1.10
2023-07-30T12:51:06.783Z,0.70
2023-07-30T12:53:40.591Z,0.70
2023-07-30T12:56:13.602Z,0.75
2023-07-30T12:58:46.182Z,0.90
2023-07-30T13:01:18.880Z,0.75
2023-07-30T13:03:52.940Z,0.88
2023-07-30T13:06:25.565Z,0.93
2023-07-30T13:08:58.066Z,0.75
2023-07-30T13:11:30.626Z,0.85
2023-07-30T13:14:05.119Z,0.77
2023-07-30T13:16:37.945Z,0.55
2023-07-30T13:19:10.544Z,0.55
2023-07-30T13:21:43.001Z,0.60
2023-07-30T13:24:15.539Z,0.50
2023-07-30T13:26:48.013Z,0.60
2023-07-30T13:29:20.523Z,1.02
2023-07-30T13:31:53.118Z,0.55
2023-07-30T13:34:25.840Z,0.65
2023-07-30T13:36:58.400Z,0.50
2023-07-30T13:39:30.968Z,0.60
2023-07-30T13:42:03.796Z,0.70
2023-07-30T13:44:36.390Z,0.80
2023-07-30T13:47:09.066Z,0.57
2023-07-30T13:49:41.717Z,0.50
2023-07-30T13:52:14.777Z,0.80
2023-07-30T13:54:47.388Z,0.65
2023-07-30T13:57:26.647Z,0.75
2023-07-30T13:59:59.288Z,0.90
2023-07-30T14:02:31.773Z,0.50
2023-07-30T14:05:04.707Z,0.70
2023-07-30T14:07:37.164Z,0.63
2023-07-30T14:10:10.706Z,0.70
2023-07-30T14:12:43.219Z,0.73
2023-07-30T14:15:18.525Z,0.57
2023-07-30T14:17:53.028Z,0.70
2023-07-30T14:20:25.754Z,0.75
2023-07-30T14:23:01.346Z,0.77
2023-07-30T14:25:33.942Z,1.00
2023-07-30T14:28:06.683Z,0.70
2023-07-30T14:30:45.075Z,0.57
2023-07-30T14:33:20.700Z,0.60
2023-07-30T14:35:55.404Z,0.82
2023-07-30T14:38:28.009Z,0.93
2023-07-30T14:41:00.774Z,0.70
2023-07-30T14:43:33.252Z,1.23
2023-07-30T14:46:05.887Z,0.80
2023-07-30T14:48:38.422Z,0.88
2023-07-30T14:51:11.191Z,0.80
2023-07-30T14:53:44.451Z,0.70
2023-07-30T14:56:17.023Z,0.63
2023-07-30T14:58:49.490Z,0.90
2023-07-30T15:01:23.821Z,1.50
2023-07-30T15:03:56.310Z,0.82
2023-07-30T15:06:32.712Z,0.68
2023-07-30T15:09:05.580Z,0.90
2023-07-30T15:11:38.063Z,1.50
2023-07-30T15:14:10.618Z,1.10
2023-07-30T15:16:43.136Z,0.70
2023-07-30T15:19:15.653Z,0.77
2023-07-30T15:21:49.456Z,0.90
2023-07-30T15:24:21.976Z,0.77
2023-07-30T15:26:54.603Z,1.30
2023-07-30T15:29:27.155Z,0.63
2023-07-30T15:32:00.096Z,0.77
2023-07-30T15:34:32.643Z,1.55
2023-07-30T15:37:05.409Z,1.10
2023-07-30T15:39:38.213Z,1.38
2023-07-30T15:42:10.804Z,1.08
2023-07-30T15:44:43.389Z,0.98
2023-07-30T15:47:15.981Z,1.13
2023-07-30T15:49:48.568Z,1.52
2023-07-30T15:52:21.075Z,0.98
2023-07-30T15:54:54.687Z,0.90
2023-07-30T15:57:27.800Z,1.15
2023-07-30T16:00:01.263Z,1.13
2023-07-30T16:02:34.340Z,0.82
2023-07-30T16:05:07.192Z,1.10
2023-07-30T16:07:40.971Z,0.93
2023-07-30T16:10:13.677Z,1.30
2023-07-30T16:12:46.249Z,1.15
2023-07-30T16:15:18.842Z,1.55
2023-07-30T16:17:51.386Z,1.10
2023-07-30T16:20:24.198Z,1.17
2023-07-30T16:22:56.702Z,1.40
2023-07-30T16:25:29.208Z,1.08
2023-07-30T16:28:02.253Z,1.20
2023-07-30T16:30:34.773Z,0.98
2023-07-30T16:33:09.442Z,1.17
2023-07-30T16:35:41.960Z,1.63
2023-07-30T16:38:16.093Z,1.40
2023-07-30T16:40:48.721Z,2.28
2023-07-30T16:43:21.619Z,1.90
2023-07-30T16:45:54.856Z,1.92
2023-07-30T16:48:27.573Z,1.67
2023-07-30T16:51:00.175Z,2.00
2023-07-30T16:53:32.840Z,1.58
2023-07-30T16:56:17.562Z,2.53
2023-07-30T16:58:50.093Z,1.65
2023-07-30T17:01:23.156Z,1.40
2023-07-30T17:03:55.847Z,1.63
2023-07-30T17:06:28.458Z,1.30
2023-07-30T17:09:01.142Z,1.40
2023-07-30T17:11:33.788Z,0.85
2023-07-30T17:14:06.356Z,1.00
2023-07-30T17:16:40.502Z,1.27
2023-07-30T17:19:13.213Z,1.10
2023-07-30T17:21:46.626Z,1.25
2023-07-30T17:24:19.101Z,1.00
2023-07-30T17:26:51.573Z,1.10
2023-07-30T17:29:24.082Z,1.63
2023-07-30T17:31:56.735Z,1.20
2023-07-30T17:34:29.348Z,1.15
2023-07-30T17:37:02.240Z,1.10
2023-07-30T17:39:37.943Z,1.25
2023-07-30T17:42:10.598Z,1.38
2023-07-30T17:44:45.220Z,1.10
2023-07-30T17:47:17.658Z,1.30
2023-07-30T17:49:50.762Z,1.50
2023-07-30T17:52:23.725Z,1.63
2023-07-30T17:54:56.313Z,1.50
2023-07-30T17:57:28.807Z,1.50
2023-07-30T18:00:01.368Z,1.80
2023-07-30T18:02:33.984Z,1.70
2023-07-30T18:05:06.549Z,2.00
2023-07-30T18:07:39.088Z,1.40
2023-07-30T18:10:11.716Z,1.60
2023-07-30T18:12:45.601Z,2.38
2023-07-30T18:15:18.133Z,2.00
2023-07-30T18:17:50.726Z,1.83
2023-07-30T18:20:23.335Z,1.50
2023-07-30T18:22:55.760Z,1.80
2023-07-30T18:25:28.289Z,1.55
2023-07-30T18:28:00.885Z,1.88
2023-07-30T18:30:35.179Z,1.45
2023-07-30T18:33:11.024Z,1.50
2023-07-30T18:35:44.158Z,1.73
2023-07-30T18:38:16.712Z,1.90
2023-07-30T18:40:49.427Z,1.45
2023-07-30T18:43:23.734Z,1.67
2023-07-30T18:45:56.413Z,1.15
2023-07-30T18:48:30.428Z,0.88
2023-07-30T18:51:02.959Z,1.13
2023-07-30T18:53:36.225Z,1.00
2023-07-30T18:56:08.766Z,0.90
2023-07-30T18:58:41.239Z,0.90
2023-07-30T19:01:13.862Z,1.10
2023-07-30T19:03:48.893Z,1.10
2023-07-30T19:06:21.659Z,1.00
2023-07-30T19:08:54.141Z,1.13
2023-07-30T19:11:26.861Z,0.70
2023-07-30T19:13:59.475Z,0.73
2023-07-30T19:16:32.141Z,0.82
2023-07-30T19:19:05.431Z,1.10
2023-07-30T19:21:37.977Z,0.63
2023-07-30T19:24:11.309Z,0.77
2023-07-30T19:26:43.873Z,0.65
2023-07-30T19:29:16.362Z,0.68
2023-07-30T19:31:48.787Z,0.70
2023-07-30T19:34:21.350Z,0.60
2023-07-30T19:36:53.849Z,0.50
2023-07-30T19:39:26.406Z,0.50
2023-07-30T19:41:58.982Z,0.80
2023-07-30T19:44:31.685Z,0.80
2023-07-30T19:47:04.540Z,0.50
2023-07-30T19:49:39.138Z,0.55
2023-07-30T19:52:13.171Z,0.50
2023-07-30T19:54:45.664Z,0.65
2023-07-30T19:57:18.181Z,0.43
2023-07-30T19:59:53.668Z,0.50
2023-07-30T20:02:26.327Z,0.77
2023-07-30T20:04:59.203Z,0.45
2023-07-30T20:07:31.913Z,0.70
2023-07-30T20:10:04.579Z,0.40
2023-07-30T20:12:37.158Z,0.50
2023-07-30T20:15:09.934Z,0.73
2023-07-30T20:17:42.492Z,0.90
2023-07-30T20:20:15.154Z,0.70
2023-07-30T20:22:47.695Z,0.68
2023-07-30T20:25:20.328Z,0.50
2023-07-30T20:27:52.934Z,0.85
2023-07-30T20:30:25.416Z,0.40
2023-07-30T20:32:57.995Z,0.68
2023-07-30T20:35:31.202Z,0.75
2023-07-30T20:38:03.817Z,0.60
2023-07-30T20:40:36.421Z,0.43
2023-07-30T20:43:08.970Z,0.55
2023-07-30T20:45:41.502Z,0.77
2023-07-30T20:48:14.056Z,0.60
2023-07-30T20:50:47.108Z,0.63
2023-07-30T20:53:20.446Z,0.77
2023-07-30T20:55:53.141Z,0.73
2023-07-30T20:58:26.315Z,0.60
2023-07-30T21:00:59.051Z,0.60
2023-07-30T21:03:33.672Z,0.90
2023-07-30T21:06:06.509Z,0.95
2023-07-30T21:08:39.199Z,0.90
2023-07-30T21:11:11.724Z,0.93
2023-07-30T21:13:44.256Z,1.02
2023-07-30T21:16:16.818Z,0.80
2023-07-30T21:18:49.394Z,0.90
2023-07-30T21:21:22.144Z,0.85
2023-07-30T21:23:54.659Z,0.60
2023-07-30T21:26:27.221Z,0.93
2023-07-30T21:28:59.702Z,0.80
2023-07-30T21:31:32.229Z,0.70
2023-07-30T21:34:04.729Z,0.75
2023-07-30T21:36:37.554Z,0.95
2023-07-30T21:39:10.327Z,0.80
2023-07-30T21:41:43.028Z,0.63
2023-07-30T21:44:15.557Z,0.80
2023-07-30T21:46:48.168Z,0.60
2023-07-30T21:49:20.724Z,0.70
2023-07-30T21:51:57.198Z,0.73
2023-07-30T21:54:29.709Z,0.80
2023-07-30T21:57:02.305Z,1.30
2023-07-30T21:59:34.803Z,1.77
2023-07-30T22:02:07.360Z,0.90
2023-07-30T22:04:39.951Z,1.50
2023-07-30T22:07:13.882Z,1.60
2023-07-30T22:09:46.638Z,2.28
2023-07-30T22:12:19.184Z,1.85
2023-07-30T22:14:51.730Z,2.75
2023-07-30T22:17:24.283Z,2.25
2023-07-30T22:19:56.809Z,2.67
2023-07-30T22:22:29.431Z,3.65
2023-07-30T22:25:02.030Z,2.85
2023-07-30T22:27:34.515Z,3.05
2023-07-30T22:30:07.667Z,3.15
2023-07-30T22:32:40.203Z,2.45
2023-07-30T22:35:12.742Z,4.47
2023-07-30T22:37:45.254Z,2.92
2023-07-30T22:40:17.994Z,2.40
2023-07-30T22:42:50.723Z,2.90
2023-07-30T22:45:23.413Z,3.53
2023-07-30T22:47:56.030Z,2.75
2023-07-30T22:50:28.639Z,3.00
2023-07-30T22:53:01.156Z,2.78
2023-07-30T22:55:33.679Z,1.88
2023-07-30T22:58:06.190Z,3.38
2023-07-30T23:00:38.874Z,2.95
2023-07-30T23:03:12.016Z,3.58
2023-07-30T23:05:44.723Z,3.45
2023-07-30T23:08:17.243Z,3.03
2023-07-30T23:10:50.633Z,2.83
2023-07-30T23:13:23.103Z,3.08
2023-07-30T23:15:55.748Z,4.38
2023-07-30T23:18:30.842Z,3.20
2023-07-30T23:21:03.833Z,3.70
2023-07-30T23:23:36.339Z,3.33
2023-07-30T23:26:08.866Z,3.65
2023-07-30T23:28:42.929Z,3.33
2023-07-30T23:31:15.549Z,4.65
2023-07-30T23:33:48.371Z,3.40
2023-07-30T23:36:20.922Z,4.22
2023-07-30T23:38:53.468Z,3.33
2023-07-30T23:41:25.997Z,3.72
2023-07-30T23:43:58.435Z,4.15
2023-07-30T23:46:30.936Z,4.28
2023-07-30T23:49:03.627Z,3.45
2023-07-30T23:51:36.496Z,3.38
2023-07-30T23:54:09.131Z,3.95
2023-07-30T23:56:41.847Z,4.63
2023-07-30T23:59:14.422Z,3.38
